sensor_id;sensor_type;location;lat;lon;timestamp;P1;durP1;ratioP1;P2;durP2;ratioP2
10201;SDS011;5143;42.584;23.164;2023-08-17T00:02:21;14.13;;;11.50;;
10201;SDS011;5143;42.584;23.164;2023-08-17T00:04:47;14.83;;;11.40;;
10201;SDS011;5143;42.584;23.164;2023-08-17T00:07:14;20.80;;;12.27;;
10201;SDS011;5143;42.584;23.164;2023-08-17T00:09:41;15.13;;;11.00;;
10201;SDS011;5143;42.584;23.164;2023-08-17T00:12:08;12.43;;;11.13;;
10201;SDS011;5143;42.584;23.164;2023-08-17T00:14:36;12.53;;;11.27;;
10201;SDS011;5143;42.584;23.164;2023-08-17T00:17:03;15.30;;;10.83;;
10201;SDS011;5143;42.584;23.164;2023-08-17T00:19:30;14.67;;;10.67;;
10201;SDS011;5143;42.584;23.164;2023-08-17T00:21:56;12.20;;;11.03;;
10201;SDS011;5143;42.584;23.164;2023-08-17T00:24:23;12.53;;;10.57;;
10201;SDS011;5143;42.584;23.164;2023-08-17T00:26:50;12.60;;;11.40;;
10201;SDS011;5143;42.584;23.164;2023-08-17T00:29:17;14.20;;;10.80;;
10201;SDS011;5143;42.584;23.164;2023-08-17T00:31:45;12.23;;;10.93;;
10201;SDS011;5143;42.584;23.164;2023-08-17T00:34:15;13.70;;;11.17;;
10201;SDS011;5143;42.584;23.164;2023-08-17T00:36:42;18.17;;;10.93;;
10201;SDS011;5143;42.584;23.164;2023-08-17T00:39:08;13.00;;;10.73;;
10201;SDS011;5143;42.584;23.164;2023-08-17T00:41:35;12.77;;;11.03;;
10201;SDS011;5143;42.584;23.164;2023-08-17T00:44:02;12.37;;;11.07;;
10201;SDS011;5143;42.584;23.164;2023-08-17T00:46:29;15.10;;;11.07;;
10201;SDS011;5143;42.584;23.164;2023-08-17T00:48:58;13.63;;;11.50;;
10201;SDS011;5143;42.584;23.164;2023-08-17T00:51:25;13.43;;;10.70;;
10201;SDS011;5143;42.584;23.164;2023-08-17T00:53:53;12.50;;;11.20;;
10201;SDS011;5143;42.584;23.164;2023-08-17T00:56:22;13.67;;;11.23;;
10201;SDS011;5143;42.584;23.164;2023-08-17T00:58:49;12.07;;;10.97;;
10201;SDS011;5143;42.584;23.164;2023-08-17T01:01:16;14.37;;;11.83;;
10201;SDS011;5143;42.584;23.164;2023-08-17T01:03:45;12.37;;;10.93;;
10201;SDS011;5143;42.584;23.164;2023-08-17T01:06:14;13.67;;;10.97;;
10201;SDS011;5143;42.584;23.164;2023-08-17T01:08:40;16.07;;;11.97;;
10201;SDS011;5143;42.584;23.164;2023-08-17T01:11:09;12.90;;;11.37;;
10201;SDS011;5143;42.584;23.164;2023-08-17T01:13:44;12.90;;;11.60;;
10201;SDS011;5143;42.584;23.164;2023-08-17T01:16:16;12.70;;;11.40;;
10201;SDS011;5143;42.584;23.164;2023-08-17T01:18:49;12.80;;;11.33;;
10201;SDS011;5143;42.584;23.164;2023-08-17T01:21:20;15.47;;;11.60;;
10201;SDS011;5143;42.584;23.164;2023-08-17T01:23:50;12.37;;;11.07;;
10201;SDS011;5143;42.584;23.164;2023-08-17T01:26:17;13.37;;;12.07;;
10201;SDS011;5143;42.584;23.164;2023-08-17T01:28:44;14.33;;;10.97;;
10201;SDS011;5143;42.584;23.164;2023-08-17T01:31:14;17.63;;;11.77;;
10201;SDS011;5143;42.584;23.164;2023-08-17T01:33:47;13.23;;;11.70;;
10201;SDS011;5143;42.584;23.164;2023-08-17T01:36:18;13.17;;;11.67;;
10201;SDS011;5143;42.584;23.164;2023-08-17T01:38:50;13.47;;;11.37;;
10201;SDS011;5143;42.584;23.164;2023-08-17T01:41:18;13.17;;;11.70;;
10201;SDS011;5143;42.584;23.164;2023-08-17T01:43:46;13.40;;;11.97;;
10201;SDS011;5143;42.584;23.164;2023-08-17T01:46:15;13.47;;;12.23;;
10201;SDS011;5143;42.584;23.164;2023-08-17T01:48:42;13.20;;;11.90;;
10201;SDS011;5143;42.584;23.164;2023-08-17T01:51:09;14.00;;;12.47;;
10201;SDS011;5143;42.584;23.164;2023-08-17T01:53:37;15.07;;;11.57;;
10201;SDS011;5143;42.584;23.164;2023-08-17T01:56:05;14.43;;;12.33;;
10201;SDS011;5143;42.584;23.164;2023-08-17T01:58:32;15.27;;;11.63;;
10201;SDS011;5143;42.584;23.164;2023-08-17T02:00:58;11.77;;;10.67;;
10201;SDS011;5143;42.584;23.164;2023-08-17T02:03:27;11.67;;;10.50;;
10201;SDS011;5143;42.584;23.164;2023-08-17T02:05:55;14.03;;;11.83;;
10201;SDS011;5143;42.584;23.164;2023-08-17T02:08:22;11.70;;;10.57;;
10201;SDS011;5143;42.584;23.164;2023-08-17T02:10:49;14.27;;;10.97;;
10201;SDS011;5143;42.584;23.164;2023-08-17T02:13:17;15.63;;;11.40;;
10201;SDS011;5143;42.584;23.164;2023-08-17T02:15:44;12.07;;;10.83;;
10201;SDS011;5143;42.584;23.164;2023-08-17T02:18:12;20.90;;;11.20;;
10201;SDS011;5143;42.584;23.164;2023-08-17T02:20:39;12.87;;;11.57;;
10201;SDS011;5143;42.584;23.164;2023-08-17T02:23:06;12.40;;;11.20;;
10201;SDS011;5143;42.584;23.164;2023-08-17T02:25:32;12.90;;;11.53;;
10201;SDS011;5143;42.584;23.164;2023-08-17T02:28:00;15.87;;;11.73;;
10201;SDS011;5143;42.584;23.164;2023-08-17T02:30:28;13.60;;;11.27;;
10201;SDS011;5143;42.584;23.164;2023-08-17T02:32:55;23.07;;;12.00;;
10201;SDS011;5143;42.584;23.164;2023-08-17T02:35:22;14.13;;;11.40;;
10201;SDS011;5143;42.584;23.164;2023-08-17T02:37:49;13.53;;;10.80;;
10201;SDS011;5143;42.584;23.164;2023-08-17T02:40:16;13.67;;;10.17;;
10201;SDS011;5143;42.584;23.164;2023-08-17T02:42:43;11.20;;;10.10;;
10201;SDS011;5143;42.584;23.164;2023-08-17T02:45:09;12.03;;;10.37;;
10201;SDS011;5143;42.584;23.164;2023-08-17T02:47:38;12.53;;;10.90;;
10201;SDS011;5143;42.584;23.164;2023-08-17T02:50:05;17.30;;;11.23;;
10201;SDS011;5143;42.584;23.164;2023-08-17T02:52:33;13.87;;;11.17;;
10201;SDS011;5143;42.584;23.164;2023-08-17T02:55:00;12.63;;;10.57;;
10201;SDS011;5143;42.584;23.164;2023-08-17T02:57:26;11.63;;;10.43;;
10201;SDS011;5143;42.584;23.164;2023-08-17T02:59:53;14.30;;;12.07;;
10201;SDS011;5143;42.584;23.164;2023-08-17T03:02:20;13.53;;;11.13;;
10201;SDS011;5143;42.584;23.164;2023-08-17T03:04:48;15.80;;;11.00;;
10201;SDS011;5143;42.584;23.164;2023-08-17T03:07:14;12.00;;;10.90;;
10201;SDS011;5143;42.584;23.164;2023-08-17T03:09:41;13.00;;;11.60;;
10201;SDS011;5143;42.584;23.164;2023-08-17T03:12:08;21.10;;;10.50;;
10201;SDS011;5143;42.584;23.164;2023-08-17T03:14:35;15.03;;;11.40;;
10201;SDS011;5143;42.584;23.164;2023-08-17T03:17:01;14.53;;;12.00;;
10201;SDS011;5143;42.584;23.164;2023-08-17T03:19:28;15.17;;;11.30;;
10201;SDS011;5143;42.584;23.164;2023-08-17T03:21:57;12.40;;;10.93;;
10201;SDS011;5143;42.584;23.164;2023-08-17T03:24:23;12.00;;;10.80;;
10201;SDS011;5143;42.584;23.164;2023-08-17T03:26:50;14.97;;;11.27;;
10201;SDS011;5143;42.584;23.164;2023-08-17T03:29:17;11.97;;;10.63;;
10201;SDS011;5143;42.584;23.164;2023-08-17T03:31:44;17.17;;;11.57;;
10201;SDS011;5143;42.584;23.164;2023-08-17T03:34:11;17.17;;;11.90;;
10201;SDS011;5143;42.584;23.164;2023-08-17T03:36:38;12.57;;;10.80;;
10201;SDS011;5143;42.584;23.164;2023-08-17T03:39:06;13.23;;;10.53;;
10201;SDS011;5143;42.584;23.164;2023-08-17T03:41:32;17.17;;;10.60;;
10201;SDS011;5143;42.584;23.164;2023-08-17T03:44:01;11.87;;;9.77;;
10201;SDS011;5143;42.584;23.164;2023-08-17T03:46:28;13.67;;;10.37;;
10201;SDS011;5143;42.584;23.164;2023-08-17T03:48:55;14.40;;;11.60;;
10201;SDS011;5143;42.584;23.164;2023-08-17T03:51:22;12.30;;;11.10;;
10201;SDS011;5143;42.584;23.164;2023-08-17T03:53:49;13.10;;;11.53;;
10201;SDS011;5143;42.584;23.164;2023-08-17T03:56:17;13.57;;;11.20;;
10201;SDS011;5143;42.584;23.164;2023-08-17T03:58:43;13.93;;;10.87;;
10201;SDS011;5143;42.584;23.164;2023-08-17T04:01:10;16.60;;;11.60;;
10201;SDS011;5143;42.584;23.164;2023-08-17T04:03:38;13.00;;;11.57;;
10201;SDS011;5143;42.584;23.164;2023-08-17T04:06:05;13.83;;;11.80;;
10201;SDS011;5143;42.584;23.164;2023-08-17T04:08:35;13.13;;;10.63;;
10201;SDS011;5143;42.584;23.164;2023-08-17T04:11:02;16.07;;;11.10;;
10201;SDS011;5143;42.584;23.164;2023-08-17T04:13:30;17.23;;;10.80;;
10201;SDS011;5143;42.584;23.164;2023-08-17T04:15:57;14.87;;;10.67;;
10201;SDS011;5143;42.584;23.164;2023-08-17T04:18:23;17.43;;;10.20;;
10201;SDS011;5143;42.584;23.164;2023-08-17T04:20:50;15.77;;;10.37;;
10201;SDS011;5143;42.584;23.164;2023-08-17T04:23:17;13.27;;;9.93;;
10201;SDS011;5143;42.584;23.164;2023-08-17T04:25:43;14.90;;;9.90;;
10201;SDS011;5143;42.584;23.164;2023-08-17T04:28:10;13.80;;;9.90;;
10201;SDS011;5143;42.584;23.164;2023-08-17T04:30:38;12.83;;;9.33;;
10201;SDS011;5143;42.584;23.164;2023-08-17T04:33:05;12.00;;;9.53;;
10201;SDS011;5143;42.584;23.164;2023-08-17T04:35:32;12.67;;;10.27;;
10201;SDS011;5143;42.584;23.164;2023-08-17T04:37:59;10.63;;;9.57;;
10201;SDS011;5143;42.584;23.164;2023-08-17T04:40:26;10.60;;;8.83;;
10201;SDS011;5143;42.584;23.164;2023-08-17T04:42:53;10.17;;;8.47;;
10201;SDS011;5143;42.584;23.164;2023-08-17T04:45:20;9.97;;;8.47;;
10201;SDS011;5143;42.584;23.164;2023-08-17T04:47:48;16.47;;;8.87;;
10201;SDS011;5143;42.584;23.164;2023-08-17T04:50:15;12.90;;;9.07;;
10201;SDS011;5143;42.584;23.164;2023-08-17T04:52:42;19.27;;;9.43;;
10201;SDS011;5143;42.584;23.164;2023-08-17T04:55:09;11.27;;;7.60;;
10201;SDS011;5143;42.584;23.164;2023-08-17T04:57:36;13.87;;;6.73;;
10201;SDS011;5143;42.584;23.164;2023-08-17T05:00:03;9.60;;;6.30;;
10201;SDS011;5143;42.584;23.164;2023-08-17T05:02:34;11.83;;;5.00;;
10201;SDS011;5143;42.584;23.164;2023-08-17T05:05:03;11.33;;;5.07;;
10201;SDS011;5143;42.584;23.164;2023-08-17T05:07:31;6.93;;;5.00;;
10201;SDS011;5143;42.584;23.164;2023-08-17T05:09:58;11.13;;;4.70;;
10201;SDS011;5143;42.584;23.164;2023-08-17T05:12:25;13.05;;;4.65;;
10201;SDS011;5143;42.584;23.164;2023-08-17T05:14:51;11.63;;;6.45;;
10201;SDS011;5143;42.584;23.164;2023-08-17T05:17:18;9.23;;;4.50;;
10201;SDS011;5143;42.584;23.164;2023-08-17T05:19:45;14.52;;;4.82;;
10201;SDS011;5143;42.584;23.164;2023-08-17T05:22:13;6.57;;;4.18;;
10201;SDS011;5143;42.584;23.164;2023-08-17T05:24:39;5.78;;;4.18;;
10201;SDS011;5143;42.584;23.164;2023-08-17T05:27:06;8.82;;;4.20;;
10201;SDS011;5143;42.584;23.164;2023-08-17T05:29:33;5.00;;;4.50;;
10201;SDS011;5143;42.584;23.164;2023-08-17T05:32:00;10.10;;;4.35;;
10201;SDS011;5143;42.584;23.164;2023-08-17T05:34:26;6.60;;;4.00;;
10201;SDS011;5143;42.584;23.164;2023-08-17T05:36:53;8.15;;;3.80;;
10201;SDS011;5143;42.584;23.164;2023-08-17T05:39:22;13.45;;;4.15;;
10201;SDS011;5143;42.584;23.164;2023-08-17T05:41:49;6.78;;;3.50;;
10201;SDS011;5143;42.584;23.164;2023-08-17T05:44:15;5.28;;;3.65;;
10201;SDS011;5143;42.584;23.164;2023-08-17T05:46:42;7.20;;;3.83;;
10201;SDS011;5143;42.584;23.164;2023-08-17T05:49:09;8.85;;;4.05;;
10201;SDS011;5143;42.584;23.164;2023-08-17T05:51:36;7.85;;;4.03;;
10201;SDS011;5143;42.584;23.164;2023-08-17T05:54:03;8.02;;;4.05;;
10201;SDS011;5143;42.584;23.164;2023-08-17T05:56:32;6.43;;;3.58;;
10201;SDS011;5143;42.584;23.164;2023-08-17T05:58:59;9.75;;;4.10;;
10201;SDS011;5143;42.584;23.164;2023-08-17T06:01:26;7.80;;;3.65;;
10201;SDS011;5143;42.584;23.164;2023-08-17T06:03:53;8.48;;;3.72;;
10201;SDS011;5143;42.584;23.164;2023-08-17T06:06:19;6.82;;;3.95;;
10201;SDS011;5143;42.584;23.164;2023-08-17T06:08:46;8.32;;;3.65;;
10201;SDS011;5143;42.584;23.164;2023-08-17T06:11:13;6.90;;;3.50;;
10201;SDS011;5143;42.584;23.164;2023-08-17T06:13:41;6.20;;;3.92;;
10201;SDS011;5143;42.584;23.164;2023-08-17T06:16:08;6.78;;;3.95;;
10201;SDS011;5143;42.584;23.164;2023-08-17T06:18:35;10.52;;;4.03;;
10201;SDS011;5143;42.584;23.164;2023-08-17T06:21:03;9.43;;;3.78;;
10201;SDS011;5143;42.584;23.164;2023-08-17T06:23:30;7.10;;;3.15;;
10201;SDS011;5143;42.584;23.164;2023-08-17T06:25:56;13.02;;;3.80;;
10201;SDS011;5143;42.584;23.164;2023-08-17T06:28:24;9.38;;;3.55;;
10201;SDS011;5143;42.584;23.164;2023-08-17T06:30:53;10.55;;;4.10;;
10201;SDS011;5143;42.584;23.164;2023-08-17T06:33:20;6.78;;;3.60;;
10201;SDS011;5143;42.584;23.164;2023-08-17T06:35:48;6.18;;;3.33;;
10201;SDS011;5143;42.584;23.164;2023-08-17T06:38:15;6.63;;;3.33;;
10201;SDS011;5143;42.584;23.164;2023-08-17T06:40:42;7.18;;;3.10;;
10201;SDS011;5143;42.584;23.164;2023-08-17T06:43:09;6.90;;;3.13;;
10201;SDS011;5143;42.584;23.164;2023-08-17T06:45:36;4.97;;;2.20;;
10201;SDS011;5143;42.584;23.164;2023-08-17T06:48:05;9.98;;;2.88;;
10201;SDS011;5143;42.584;23.164;2023-08-17T06:50:32;4.72;;;2.60;;
10201;SDS011;5143;42.584;23.164;2023-08-17T06:52:58;7.63;;;2.55;;
10201;SDS011;5143;42.584;23.164;2023-08-17T06:55:25;5.55;;;2.75;;
10201;SDS011;5143;42.584;23.164;2023-08-17T06:57:52;13.00;;;2.78;;
10201;SDS011;5143;42.584;23.164;2023-08-17T07:00:23;5.70;;;2.75;;
10201;SDS011;5143;42.584;23.164;2023-08-17T07:02:50;5.13;;;3.28;;
10201;SDS011;5143;42.584;23.164;2023-08-17T07:05:18;4.78;;;2.80;;
10201;SDS011;5143;42.584;23.164;2023-08-17T07:07:48;7.40;;;2.78;;
10201;SDS011;5143;42.584;23.164;2023-08-17T07:10:14;18.90;;;3.95;;
10201;SDS011;5143;42.584;23.164;2023-08-17T07:12:41;9.20;;;2.90;;
10201;SDS011;5143;42.584;23.164;2023-08-17T07:15:08;8.15;;;2.60;;
10201;SDS011;5143;42.584;23.164;2023-08-17T07:17:36;6.10;;;2.08;;
10201;SDS011;5143;42.584;23.164;2023-08-17T07:20:03;8.40;;;2.30;;
10201;SDS011;5143;42.584;23.164;2023-08-17T07:22:32;7.38;;;2.30;;
10201;SDS011;5143;42.584;23.164;2023-08-17T07:25:00;7.18;;;2.08;;
10201;SDS011;5143;42.584;23.164;2023-08-17T07:27:26;6.32;;;2.13;;
10201;SDS011;5143;42.584;23.164;2023-08-17T07:29:53;8.38;;;2.20;;
10201;SDS011;5143;42.584;23.164;2023-08-17T07:32:20;4.22;;;2.10;;
10201;SDS011;5143;42.584;23.164;2023-08-17T07:34:47;7.43;;;2.03;;
10201;SDS011;5143;42.584;23.164;2023-08-17T07:37:14;8.65;;;2.60;;
10201;SDS011;5143;42.584;23.164;2023-08-17T07:39:42;6.93;;;2.70;;
10201;SDS011;5143;42.584;23.164;2023-08-17T07:42:09;3.13;;;2.00;;
10201;SDS011;5143;42.584;23.164;2023-08-17T07:44:36;12.05;;;2.55;;
10201;SDS011;5143;42.584;23.164;2023-08-17T07:47:04;8.63;;;2.42;;
10201;SDS011;5143;42.584;23.164;2023-08-17T07:49:32;8.90;;;2.40;;
10201;SDS011;5143;42.584;23.164;2023-08-17T07:51:58;8.45;;;2.50;;
10201;SDS011;5143;42.584;23.164;2023-08-17T07:54:25;11.10;;;2.90;;
10201;SDS011;5143;42.584;23.164;2023-08-17T07:56:54;4.13;;;2.30;;
10201;SDS011;5143;42.584;23.164;2023-08-17T07:59:20;8.05;;;2.40;;
10201;SDS011;5143;42.584;23.164;2023-08-17T08:01:47;7.90;;;2.20;;
10201;SDS011;5143;42.584;23.164;2023-08-17T08:04:14;5.40;;;2.53;;
10201;SDS011;5143;42.584;23.164;2023-08-17T08:06:44;6.55;;;2.03;;
10201;SDS011;5143;42.584;23.164;2023-08-17T08:09:11;7.05;;;2.15;;
10201;SDS011;5143;42.584;23.164;2023-08-17T08:11:38;9.50;;;2.45;;
10201;SDS011;5143;42.584;23.164;2023-08-17T08:14:06;8.38;;;2.20;;
10201;SDS011;5143;42.584;23.164;2023-08-17T08:16:33;6.90;;;2.50;;
10201;SDS011;5143;42.584;23.164;2023-08-17T08:19:00;5.40;;;2.17;;
10201;SDS011;5143;42.584;23.164;2023-08-17T08:21:26;3.45;;;2.10;;
10201;SDS011;5143;42.584;23.164;2023-08-17T08:23:53;3.22;;;1.88;;
10201;SDS011;5143;42.584;23.164;2023-08-17T08:26:20;5.97;;;2.53;;
10201;SDS011;5143;42.584;23.164;2023-08-17T08:28:47;8.30;;;2.50;;
10201;SDS011;5143;42.584;23.164;2023-08-17T08:31:15;14.18;;;2.35;;
10201;SDS011;5143;42.584;23.164;2023-08-17T08:33:42;3.35;;;1.98;;
10201;SDS011;5143;42.584;23.164;2023-08-17T08:36:10;3.85;;;2.03;;
10201;SDS011;5143;42.584;23.164;2023-08-17T08:38:36;11.13;;;2.13;;
10201;SDS011;5143;42.584;23.164;2023-08-17T08:41:03;7.30;;;2.22;;
10201;SDS011;5143;42.584;23.164;2023-08-17T08:43:34;10.25;;;2.45;;
10201;SDS011;5143;42.584;23.164;2023-08-17T08:46:02;3.88;;;2.03;;
10201;SDS011;5143;42.584;23.164;2023-08-17T08:48:31;4.90;;;1.85;;
10201;SDS011;5143;42.584;23.164;2023-08-17T08:50:59;6.72;;;1.90;;
10201;SDS011;5143;42.584;23.164;2023-08-17T08:53:28;4.10;;;2.20;;
10201;SDS011;5143;42.584;23.164;2023-08-17T08:55:59;6.03;;;2.05;;
10201;SDS011;5143;42.584;23.164;2023-08-17T08:58:27;3.30;;;2.00;;
10201;SDS011;5143;42.584;23.164;2023-08-17T09:00:55;3.13;;;2.13;;
10201;SDS011;5143;42.584;23.164;2023-08-17T09:03:24;3.20;;;2.05;;
10201;SDS011;5143;42.584;23.164;2023-08-17T09:05:52;3.47;;;2.17;;
10201;SDS011;5143;42.584;23.164;2023-08-17T09:08:22;6.13;;;2.80;;
10201;SDS011;5143;42.584;23.164;2023-08-17T09:10:53;3.28;;;2.58;;
10201;SDS011;5143;42.584;23.164;2023-08-17T09:13:20;7.93;;;2.10;;
10201;SDS011;5143;42.584;23.164;2023-08-17T09:15:47;4.63;;;2.08;;
10201;SDS011;5143;42.584;23.164;2023-08-17T09:18:14;5.45;;;2.20;;
10201;SDS011;5143;42.584;23.164;2023-08-17T09:20:54;8.88;;;2.03;;
10201;SDS011;5143;42.584;23.164;2023-08-17T09:23:22;3.42;;;1.80;;
10201;SDS011;5143;42.584;23.164;2023-08-17T09:25:49;8.43;;;2.35;;
10201;SDS011;5143;42.584;23.164;2023-08-17T09:28:23;8.85;;;2.30;;
10201;SDS011;5143;42.584;23.164;2023-08-17T09:30:53;12.93;;;2.30;;
10201;SDS011;5143;42.584;23.164;2023-08-17T09:33:21;4.60;;;1.90;;
10201;SDS011;5143;42.584;23.164;2023-08-17T09:35:49;3.60;;;2.03;;
10201;SDS011;5143;42.584;23.164;2023-08-17T09:38:17;2.60;;;1.90;;
10201;SDS011;5143;42.584;23.164;2023-08-17T09:40:44;7.45;;;2.20;;
10201;SDS011;5143;42.584;23.164;2023-08-17T09:43:11;3.60;;;1.88;;
10201;SDS011;5143;42.584;23.164;2023-08-17T09:45:40;6.38;;;2.00;;
10201;SDS011;5143;42.584;23.164;2023-08-17T09:48:09;7.13;;;2.40;;
10201;SDS011;5143;42.584;23.164;2023-08-17T09:50:36;6.43;;;2.28;;
10201;SDS011;5143;42.584;23.164;2023-08-17T09:53:03;6.97;;;2.00;;
10201;SDS011;5143;42.584;23.164;2023-08-17T09:55:31;7.82;;;1.77;;
10201;SDS011;5143;42.584;23.164;2023-08-17T09:57:59;2.97;;;1.50;;
10201;SDS011;5143;42.584;23.164;2023-08-17T10:00:27;3.05;;;2.13;;
10201;SDS011;5143;42.584;23.164;2023-08-17T10:02:54;8.27;;;1.90;;
10201;SDS011;5143;42.584;23.164;2023-08-17T10:05:24;2.47;;;1.92;;
10201;SDS011;5143;42.584;23.164;2023-08-17T10:07:56;10.48;;;1.85;;
10201;SDS011;5143;42.584;23.164;2023-08-17T10:10:25;3.25;;;1.55;;
10201;SDS011;5143;42.584;23.164;2023-08-17T10:12:56;4.60;;;1.83;;
10201;SDS011;5143;42.584;23.164;2023-08-17T10:15:33;4.68;;;1.63;;
10201;SDS011;5143;42.584;23.164;2023-08-17T10:18:07;2.80;;;1.60;;
10201;SDS011;5143;42.584;23.164;2023-08-17T10:20:39;4.00;;;1.80;;
10201;SDS011;5143;42.584;23.164;2023-08-17T10:23:12;3.35;;;2.10;;
10201;SDS011;5143;42.584;23.164;2023-08-17T10:25:43;3.83;;;1.70;;
10201;SDS011;5143;42.584;23.164;2023-08-17T10:28:11;5.05;;;1.70;;
10201;SDS011;5143;42.584;23.164;2023-08-17T10:30:39;10.38;;;2.72;;
10201;SDS011;5143;42.584;23.164;2023-08-17T10:33:05;2.20;;;1.50;;
10201;SDS011;5143;42.584;23.164;2023-08-17T10:35:37;6.53;;;2.50;;
10201;SDS011;5143;42.584;23.164;2023-08-17T10:38:06;3.25;;;2.00;;
10201;SDS011;5143;42.584;23.164;2023-08-17T10:40:37;4.38;;;1.70;;
10201;SDS011;5143;42.584;23.164;2023-08-17T10:43:06;3.22;;;1.60;;
10201;SDS011;5143;42.584;23.164;2023-08-17T10:45:35;12.35;;;2.05;;
10201;SDS011;5143;42.584;23.164;2023-08-17T10:50:59;2.80;;;1.60;;
10201;SDS011;5143;42.584;23.164;2023-08-17T10:53:27;6.32;;;1.88;;
10201;SDS011;5143;42.584;23.164;2023-08-17T10:56:01;2.97;;;1.70;;
10201;SDS011;5143;42.584;23.164;2023-08-17T10:58:33;3.10;;;1.65;;
10201;SDS011;5143;42.584;23.164;2023-08-17T11:01:02;2.45;;;1.77;;
10201;SDS011;5143;42.584;23.164;2023-08-17T11:03:29;11.65;;;1.65;;
10201;SDS011;5143;42.584;23.164;2023-08-17T11:05:56;4.90;;;1.90;;
10201;SDS011;5143;42.584;23.164;2023-08-17T11:08:26;2.47;;;1.63;;
10201;SDS011;5143;42.584;23.164;2023-08-17T11:11:02;4.53;;;1.77;;
10201;SDS011;5143;42.584;23.164;2023-08-17T11:13:30;4.00;;;1.65;;
10201;SDS011;5143;42.584;23.164;2023-08-17T11:15:58;9.95;;;1.80;;
10201;SDS011;5143;42.584;23.164;2023-08-17T11:18:28;6.45;;;1.80;;
10201;SDS011;5143;42.584;23.164;2023-08-17T11:20:56;2.05;;;1.60;;
10201;SDS011;5143;42.584;23.164;2023-08-17T11:23:23;2.63;;;1.65;;
10201;SDS011;5143;42.584;23.164;2023-08-17T11:25:52;2.97;;;1.73;;
10201;SDS011;5143;42.584;23.164;2023-08-17T11:28:19;6.15;;;1.58;;
10201;SDS011;5143;42.584;23.164;2023-08-17T11:30:55;2.05;;;1.60;;
10201;SDS011;5143;42.584;23.164;2023-08-17T11:33:24;6.75;;;1.70;;
10201;SDS011;5143;42.584;23.164;2023-08-17T11:35:53;4.90;;;1.60;;
10201;SDS011;5143;42.584;23.164;2023-08-17T11:38:20;2.55;;;1.42;;
10201;SDS011;5143;42.584;23.164;2023-08-17T11:40:47;4.88;;;1.80;;
10201;SDS011;5143;42.584;23.164;2023-08-17T11:43:14;3.70;;;1.65;;
10201;SDS011;5143;42.584;23.164;2023-08-17T11:45:42;4.78;;;1.50;;
10201;SDS011;5143;42.584;23.164;2023-08-17T11:48:08;3.47;;;1.40;;
10201;SDS011;5143;42.584;23.164;2023-08-17T11:50:37;4.90;;;1.90;;
10201;SDS011;5143;42.584;23.164;2023-08-17T11:53:04;7.18;;;2.13;;
10201;SDS011;5143;42.584;23.164;2023-08-17T11:55:31;3.53;;;1.67;;
10201;SDS011;5143;42.584;23.164;2023-08-17T11:57:58;6.95;;;1.95;;
10201;SDS011;5143;42.584;23.164;2023-08-17T12:00:24;6.93;;;2.03;;
10201;SDS011;5143;42.584;23.164;2023-08-17T12:02:52;5.32;;;1.60;;
10201;SDS011;5143;42.584;23.164;2023-08-17T12:05:20;6.38;;;1.50;;
10201;SDS011;5143;42.584;23.164;2023-08-17T12:07:50;9.60;;;2.20;;
10201;SDS011;5143;42.584;23.164;2023-08-17T12:10:17;5.05;;;1.95;;
10201;SDS011;5143;42.584;23.164;2023-08-17T12:12:47;2.97;;;1.40;;
10201;SDS011;5143;42.584;23.164;2023-08-17T12:15:15;9.18;;;2.00;;
10201;SDS011;5143;42.584;23.164;2023-08-17T12:17:44;3.78;;;1.88;;
10201;SDS011;5143;42.584;23.164;2023-08-17T12:20:15;5.03;;;2.10;;
10201;SDS011;5143;42.584;23.164;2023-08-17T12:22:43;3.72;;;1.60;;
10201;SDS011;5143;42.584;23.164;2023-08-17T12:25:11;3.72;;;1.90;;
10201;SDS011;5143;42.584;23.164;2023-08-17T12:27:38;3.58;;;1.48;;
10201;SDS011;5143;42.584;23.164;2023-08-17T12:30:11;4.72;;;1.80;;
10201;SDS011;5143;42.584;23.164;2023-08-17T12:32:39;2.28;;;1.40;;
10201;SDS011;5143;42.584;23.164;2023-08-17T12:35:06;1.88;;;1.42;;
10201;SDS011;5143;42.584;23.164;2023-08-17T12:37:34;3.05;;;1.50;;
10201;SDS011;5143;42.584;23.164;2023-08-17T12:40:00;7.72;;;1.90;;
10201;SDS011;5143;42.584;23.164;2023-08-17T12:42:30;3.50;;;1.70;;
10201;SDS011;5143;42.584;23.164;2023-08-17T12:44:56;2.85;;;1.65;;
10201;SDS011;5143;42.584;23.164;2023-08-17T12:47:23;3.03;;;1.40;;
10201;SDS011;5143;42.584;23.164;2023-08-17T12:49:50;8.77;;;1.63;;
10201;SDS011;5143;42.584;23.164;2023-08-17T12:52:16;4.28;;;1.70;;
10201;SDS011;5143;42.584;23.164;2023-08-17T12:54:43;5.25;;;1.95;;
10201;SDS011;5143;42.584;23.164;2023-08-17T12:57:10;6.45;;;1.63;;
10201;SDS011;5143;42.584;23.164;2023-08-17T12:59:38;6.28;;;1.67;;
10201;SDS011;5143;42.584;23.164;2023-08-17T13:02:06;3.03;;;1.38;;
10201;SDS011;5143;42.584;23.164;2023-08-17T13:04:32;5.43;;;2.10;;
10201;SDS011;5143;42.584;23.164;2023-08-17T13:06:59;4.18;;;2.17;;
10201;SDS011;5143;42.584;23.164;2023-08-17T13:09:26;3.65;;;2.03;;
10201;SDS011;5143;42.584;23.164;2023-08-17T13:11:52;3.40;;;1.90;;
10201;SDS011;5143;42.584;23.164;2023-08-17T13:14:19;5.72;;;1.80;;
10201;SDS011;5143;42.584;23.164;2023-08-17T13:16:49;7.78;;;1.65;;
10201;SDS011;5143;42.584;23.164;2023-08-17T13:19:16;3.20;;;2.10;;
10201;SDS011;5143;42.584;23.164;2023-08-17T13:21:42;4.18;;;1.92;;
10201;SDS011;5143;42.584;23.164;2023-08-17T13:24:09;6.05;;;1.98;;
10201;SDS011;5143;42.584;23.164;2023-08-17T13:26:36;3.70;;;2.17;;
10201;SDS011;5143;42.584;23.164;2023-08-17T13:29:03;3.38;;;2.08;;
10201;SDS011;5143;42.584;23.164;2023-08-17T13:31:30;5.18;;;1.98;;
10201;SDS011;5143;42.584;23.164;2023-08-17T13:33:58;8.20;;;2.10;;
10201;SDS011;5143;42.584;23.164;2023-08-17T13:36:25;5.00;;;2.33;;
10201;SDS011;5143;42.584;23.164;2023-08-17T13:38:51;3.67;;;2.45;;
10201;SDS011;5143;42.584;23.164;2023-08-17T13:41:18;4.95;;;2.28;;
10201;SDS011;5143;42.584;23.164;2023-08-17T13:43:45;5.15;;;2.60;;
10201;SDS011;5143;42.584;23.164;2023-08-17T13:46:11;4.78;;;2.47;;
10201;SDS011;5143;42.584;23.164;2023-08-17T13:48:38;6.82;;;2.38;;
10201;SDS011;5143;42.584;23.164;2023-08-17T13:51:08;5.18;;;2.28;;
10201;SDS011;5143;42.584;23.164;2023-08-17T13:53:36;3.97;;;2.25;;
10201;SDS011;5143;42.584;23.164;2023-08-17T13:56:02;8.20;;;2.60;;
10201;SDS011;5143;42.584;23.164;2023-08-17T13:58:29;10.48;;;2.47;;
10201;SDS011;5143;42.584;23.164;2023-08-17T14:00:56;6.30;;;2.60;;
10201;SDS011;5143;42.584;23.164;2023-08-17T14:03:23;9.45;;;2.60;;
10201;SDS011;5143;42.584;23.164;2023-08-17T14:05:50;3.67;;;2.65;;
10201;SDS011;5143;42.584;23.164;2023-08-17T14:08:18;7.60;;;3.15;;
10201;SDS011;5143;42.584;23.164;2023-08-17T14:10:44;4.32;;;2.30;;
10201;SDS011;5143;42.584;23.164;2023-08-17T14:13:11;4.43;;;2.60;;
10201;SDS011;5143;42.584;23.164;2023-08-17T14:15:38;4.82;;;2.53;;
10201;SDS011;5143;42.584;23.164;2023-08-17T14:18:05;5.88;;;2.65;;
10201;SDS011;5143;42.584;23.164;2023-08-17T14:20:31;3.60;;;2.25;;
10201;SDS011;5143;42.584;23.164;2023-08-17T14:22:58;5.85;;;2.35;;
10201;SDS011;5143;42.584;23.164;2023-08-17T14:25:26;3.42;;;2.17;;
10201;SDS011;5143;42.584;23.164;2023-08-17T14:27:53;5.75;;;2.95;;
10201;SDS011;5143;42.584;23.164;2023-08-17T14:30:20;5.63;;;2.65;;
10201;SDS011;5143;42.584;23.164;2023-08-17T14:32:49;3.15;;;2.53;;
10201;SDS011;5143;42.584;23.164;2023-08-17T14:35:16;6.55;;;2.90;;
10201;SDS011;5143;42.584;23.164;2023-08-17T14:37:43;6.60;;;2.70;;
10201;SDS011;5143;42.584;23.164;2023-08-17T14:40:10;6.10;;;2.78;;
10201;SDS011;5143;42.584;23.164;2023-08-17T14:42:38;5.20;;;2.73;;
10201;SDS011;5143;42.584;23.164;2023-08-17T14:45:05;4.05;;;2.47;;